sensor_id;sensor_type;location;lat;lon;timestamp;pressure;altitude;pressure_sealevel;temperature;humidity
56568;BME280;42456;49.956;20.004;2024-01-27T00:00:28;98473.67;;;4.48;95.68
56568;BME280;42456;49.956;20.004;2024-01-27T00:02:55;98496.36;;;4.47;95.91
56568;BME280;42456;49.956;20.004;2024-01-27T00:05:22;98513.58;;;4.47;95.47
56568;BME280;42456;49.956;20.004;2024-01-27T00:07:49;98521.71;;;4.47;95.99
56568;BME280;42456;49.956;20.004;2024-01-27T00:10:16;98517.77;;;4.49;95.30
56568;BME280;42456;49.956;20.004;2024-01-27T00:12:42;98539.98;;;4.46;94.81
56568;BME280;42456;49.956;20.004;2024-01-27T00:15:09;98539.86;;;4.43;94.54
56568;BME280;42456;49.956;20.004;2024-01-27T00:17:36;98553.11;;;4.40;94.64
56568;BME280;42456;49.956;20.004;2024-01-27T00:20:03;98561.88;;;4.37;94.47
56568;BME280;42456;49.956;20.004;2024-01-27T00:22:30;98572.03;;;4.33;94.16
56568;BME280;42456;49.956;20.004;2024-01-27T00:24:58;98581.37;;;4.29;94.03
56568;BME280;42456;49.956;20.004;2024-01-27T00:27:24;98584.78;;;4.24;94.14
56568;BME280;42456;49.956;20.004;2024-01-27T00:29:51;98594.45;;;4.20;93.39
56568;BME280;42456;49.956;20.004;2024-01-27T00:32:18;98593.47;;;4.17;92.99
56568;BME280;42456;49.956;20.004;2024-01-27T00:34:45;98589.91;;;4.16;92.78
56568;BME280;42456;49.956;20.004;2024-01-27T00:37:12;98604.41;;;4.14;92.39
56568;BME280;42456;49.956;20.004;2024-01-27T00:39:39;98615.27;;;4.13;91.59
56568;BME280;42456;49.956;20.004;2024-01-27T00:42:06;98626.73;;;4.11;91.74
56568;BME280;42456;49.956;20.004;2024-01-27T00:44:32;98632.35;;;4.08;91.41
56568;BME280;42456;49.956;20.004;2024-01-27T00:46:59;98642.41;;;4.06;90.33
56568;BME280;42456;49.956;20.004;2024-01-27T00:49:26;98643.98;;;4.05;90.19
56568;BME280;42456;49.956;20.004;2024-01-27T00:51:53;98652.23;;;4.02;89.77
56568;BME280;42456;49.956;20.004;2024-01-27T00:54:20;98657.91;;;3.99;89.32
56568;BME280;42456;49.956;20.004;2024-01-27T00:56:47;98660.10;;;3.99;89.13
56568;BME280;42456;49.956;20.004;2024-01-27T00:59:15;98665.52;;;3.99;88.80
56568;BME280;42456;49.956;20.004;2024-01-27T01:01:42;98672.54;;;4.00;88.63
56568;BME280;42456;49.956;20.004;2024-01-27T01:04:08;98671.58;;;4.00;88.76
56568;BME280;42456;49.956;20.004;2024-01-27T01:06:39;98674.60;;;4.00;88.82
56568;BME280;42456;49.956;20.004;2024-01-27T01:09:06;98680.05;;;4.00;88.94
56568;BME280;42456;49.956;20.004;2024-01-27T01:11:33;98684.52;;;3.97;89.02
56568;BME280;42456;49.956;20.004;2024-01-27T01:14:04;98685.98;;;3.94;88.74
56568;BME280;42456;49.956;20.004;2024-01-27T01:16:30;98684.56;;;3.90;88.75
56568;BME280;42456;49.956;20.004;2024-01-27T01:18:57;98689.23;;;3.84;88.68
56568;BME280;42456;49.956;20.004;2024-01-27T01:21:24;98691.60;;;3.79;88.66
56568;BME280;42456;49.956;20.004;2024-01-27T01:23:51;98699.23;;;3.76;88.87
56568;BME280;42456;49.956;20.004;2024-01-27T01:26:18;98703.17;;;3.74;88.96
56568;BME280;42456;49.956;20.004;2024-01-27T01:28:45;98710.95;;;3.72;88.82
56568;BME280;42456;49.956;20.004;2024-01-27T01:31:12;98709.20;;;3.70;88.85
56568;BME280;42456;49.956;20.004;2024-01-27T01:33:39;98718.73;;;3.68;88.72
56568;BME280;42456;49.956;20.004;2024-01-27T01:36:06;98725.92;;;3.65;88.71
56568;BME280;42456;49.956;20.004;2024-01-27T01:38:34;98728.48;;;3.63;88.48
56568;BME280;42456;49.956;20.004;2024-01-27T01:41:01;98734.94;;;3.62;88.62
56568;BME280;42456;49.956;20.004;2024-01-27T01:43:27;98727.33;;;3.59;88.42
56568;BME280;42456;49.956;20.004;2024-01-27T01:45:55;98724.04;;;3.58;88.19
56568;BME280;42456;49.956;20.004;2024-01-27T01:48:22;98727.94;;;3.57;88.20
56568;BME280;42456;49.956;20.004;2024-01-27T01:50:49;98727.83;;;3.56;88.13
56568;BME280;42456;49.956;20.004;2024-01-27T01:53:16;98724.10;;;3.55;87.74
56568;BME280;42456;49.956;20.004;2024-01-27T01:55:44;98727.20;;;3.54;87.74
56568;BME280;42456;49.956;20.004;2024-01-27T01:58:13;98731.14;;;3.53;87.48
56568;BME280;42456;49.956;20.004;2024-01-27T02:00:40;98741.14;;;3.53;87.38
56568;BME280;42456;49.956;20.004;2024-01-27T02:03:11;98743.16;;;3.52;87.15
56568;BME280;42456;49.956;20.004;2024-01-27T02:05:39;98744.81;;;3.50;87.05
56568;BME280;42456;49.956;20.004;2024-01-27T02:08:06;98744.77;;;3.50;87.00
56568;BME280;42456;49.956;20.004;2024-01-27T02:10:33;98739.92;;;3.50;86.79
56568;BME280;42456;49.956;20.004;2024-01-27T02:13:14;98740.61;;;3.50;86.75
56568;BME280;42456;49.956;20.004;2024-01-27T02:15:50;98739.49;;;3.50;86.64
56568;BME280;42456;49.956;20.004;2024-01-27T02:18:17;98738.43;;;3.50;86.73
56568;BME280;42456;49.956;20.004;2024-01-27T02:20:45;98746.62;;;3.50;86.50
56568;BME280;42456;49.956;20.004;2024-01-27T02:23:12;98743.34;;;3.49;86.40
56568;BME280;42456;49.956;20.004;2024-01-27T02:25:39;98745.41;;;3.47;86.22
56568;BME280;42456;49.956;20.004;2024-01-27T02:28:06;98747.54;;;3.45;85.99
56568;BME280;42456;49.956;20.004;2024-01-27T02:30:33;98752.82;;;3.42;86.14
56568;BME280;42456;49.956;20.004;2024-01-27T02:40:29;98762.68;;;3.33;85.84
56568;BME280;42456;49.956;20.004;2024-01-27T06:33:23;98931.04;;;2.56;83.70
56568;BME280;42456;49.956;20.004;2024-01-27T09:12:38;99001.74;;;3.18;76.47
56568;BME280;42456;49.956;20.004;2024-01-27T10:21:21;99051.95;;;2.59;82.32
56568;BME280;42456;49.956;20.004;2024-01-27T12:27:46;99086.60;;;2.21;89.01
56568;BME280;42456;49.956;20.004;2024-01-27T14:11:47;99198.96;;;1.98;91.56
56568;BME280;42456;49.956;20.004;2024-01-27T17:05:18;99485.40;;;2.12;95.98
56568;BME280;42456;49.956;20.004;2024-01-27T19:50:00;99700.98;;;2.31;95.97
